createdAt,value
2022-10-28T00:02:23.085Z,8.76
2022-10-28T00:04:54.562Z,8.75
2022-10-28T00:07:26.040Z,8.74
2022-10-28T00:09:57.460Z,8.72
2022-10-28T00:12:28.916Z,8.72
2022-10-28T00:15:00.383Z,8.70
2022-10-28T00:17:31.833Z,8.70
2022-10-28T00:20:03.292Z,8.71
2022-10-28T00:22:34.686Z,8.68
2022-10-28T00:25:07.223Z,8.67
2022-10-28T00:27:38.642Z,8.65
2022-10-28T00:30:11.771Z,8.62
2022-10-28T00:32:43.207Z,8.60
2022-10-28T00:35:14.905Z,8.59
2022-10-28T00:37:46.287Z,8.57
2022-10-28T00:40:18.056Z,8.55
2022-10-28T00:42:49.445Z,8.53
2022-10-28T00:45:21.198Z,8.51
2022-10-28T00:47:57.554Z,8.49
2022-10-28T00:50:42.246Z,8.48
2022-10-28T00:53:18.467Z,8.52
2022-10-28T00:55:51.966Z,8.51
2022-10-28T00:58:27.632Z,8.47
2022-10-28T01:00:59.403Z,8.44
2022-10-28T01:03:30.849Z,8.44
2022-10-28T01:06:03.795Z,8.44
2022-10-28T01:08:35.292Z,8.44
2022-10-28T01:11:41.459Z,8.41
2022-10-28T01:14:25.233Z,8.38
2022-10-28T01:17:17.431Z,8.38
2022-10-28T01:20:18.476Z,8.40
2022-10-28T01:22:58.727Z,8.40
2022-10-28T01:25:59.532Z,8.43
2022-10-28T01:29:17.639Z,8.44
2022-10-28T01:31:55.456Z,8.43
2022-10-28T01:34:33.583Z,8.45
2022-10-28T01:37:12.958Z,8.47
2022-10-28T01:39:52.420Z,8.48
2022-10-28T01:42:29.882Z,8.48
2022-10-28T01:45:11.787Z,8.48
2022-10-28T01:47:48.427Z,8.47
2022-10-28T01:50:26.278Z,8.45
2022-10-28T01:53:02.947Z,8.44
2022-10-28T01:55:39.635Z,8.40
2022-10-28T01:58:14.591Z,8.37
2022-10-28T02:00:47.701Z,8.34
2022-10-28T02:03:19.801Z,8.31
2022-10-28T02:05:54.137Z,8.30
2022-10-28T02:08:50.780Z,8.28
2022-10-28T02:11:42.708Z,8.24
2022-10-28T02:14:29.467Z,8.25
2022-10-28T02:17:09.249Z,8.26
2022-10-28T02:19:50.027Z,8.24
2022-10-28T02:22:28.352Z,8.22
2022-10-28T02:25:08.990Z,8.21
2022-10-28T02:27:48.675Z,8.21
2022-10-28T02:30:25.533Z,8.20
2022-10-28T02:33:00.587Z,8.20
2022-10-28T02:35:37.741Z,8.22
2022-10-28T02:38:15.943Z,8.22
2022-10-28T02:43:31.158Z,8.18
2022-10-28T02:46:06.327Z,8.18
2022-10-28T02:48:41.319Z,8.18
2022-10-28T02:51:18.397Z,8.16
2022-10-28T02:54:00.293Z,8.17
2022-10-28T02:56:33.982Z,8.17
2022-10-28T02:59:09.464Z,8.16
2022-10-28T03:01:41.119Z,8.13
2022-10-28T03:04:12.753Z,8.13
2022-10-28T03:06:44.232Z,8.15
2022-10-28T03:09:15.680Z,8.16
2022-10-28T03:11:47.034Z,8.15
2022-10-28T03:14:18.458Z,8.13
2022-10-28T03:16:50.977Z,8.12
2022-10-28T03:19:22.393Z,8.12
2022-10-28T03:21:53.947Z,8.13
2022-10-28T03:24:25.397Z,8.14
2022-10-28T03:26:56.850Z,8.15
2022-10-28T03:29:28.227Z,8.13
2022-10-28T03:31:59.693Z,8.12
2022-10-28T03:34:31.132Z,8.10
2022-10-28T03:37:02.595Z,8.11
2022-10-28T03:39:34.197Z,8.10
2022-10-28T03:42:06.012Z,8.09
2022-10-28T03:44:37.482Z,8.07
2022-10-28T03:47:09.147Z,8.07
2022-10-28T03:49:40.647Z,8.06
2022-10-28T03:52:12.117Z,8.06
2022-10-28T03:54:43.603Z,8.05
2022-10-28T03:57:15.191Z,8.05
2022-10-28T03:59:46.648Z,8.05
2022-10-28T04:02:18.182Z,8.04
2022-10-28T04:04:49.713Z,8.04
2022-10-28T04:07:21.139Z,8.09
2022-10-28T04:09:52.602Z,8.09
2022-10-28T04:12:24.039Z,8.08
2022-10-28T04:14:55.493Z,8.07
2022-10-28T04:17:27.114Z,8.06
2022-10-28T04:19:58.516Z,8.05
2022-10-28T04:22:29.950Z,8.03
2022-10-28T04:25:01.349Z,8.03
2022-10-28T04:27:32.857Z,8.04
2022-10-28T04:30:06.175Z,8.04
2022-10-28T04:32:37.681Z,8.03
2022-10-28T04:35:11.834Z,8.02
2022-10-28T04:37:43.908Z,8.04
2022-10-28T04:40:16.006Z,8.05
2022-10-28T04:42:47.553Z,8.06
2022-10-28T04:45:19.112Z,8.05
2022-10-28T04:47:50.528Z,8.06
2022-10-28T04:50:21.935Z,8.06
2022-10-28T04:52:53.604Z,8.06
2022-10-28T04:55:25.164Z,8.08
2022-10-28T04:58:01.910Z,8.08
2022-10-28T05:00:33.506Z,8.05
2022-10-28T05:03:05.828Z,8.02
2022-10-28T05:05:37.475Z,8.00
2022-10-28T05:08:09.499Z,8.02
2022-10-28T05:10:41.095Z,8.02
2022-10-28T05:13:12.549Z,8.00
2022-10-28T05:15:44.160Z,8.00
2022-10-28T05:18:15.603Z,8.05
2022-10-28T05:20:47.199Z,8.08
2022-10-28T05:23:18.703Z,8.09
2022-10-28T05:25:50.264Z,8.10
2022-10-28T05:28:22.811Z,8.09
2022-10-28T05:30:54.354Z,8.10
2022-10-28T05:33:25.989Z,8.10
2022-10-28T05:35:59.739Z,8.10
2022-10-28T05:38:29.809Z,8.08
2022-10-28T05:41:01.828Z,8.08
2022-10-28T05:43:33.290Z,8.10
2022-10-28T05:46:05.356Z,8.12
2022-10-28T05:48:37.147Z,8.15
2022-10-28T05:51:08.822Z,8.17
2022-10-28T05:53:41.752Z,8.18
2022-10-28T05:56:13.179Z,8.22
2022-10-28T05:58:44.734Z,8.30
2022-10-28T06:01:16.732Z,8.35
2022-10-28T06:03:48.292Z,8.37
2022-10-28T06:06:20.933Z,8.34
2022-10-28T06:08:52.319Z,8.31
2022-10-28T06:11:22.200Z,8.30
2022-10-28T06:13:53.750Z,8.33
2022-10-28T06:16:25.444Z,8.35
2022-10-28T06:18:56.964Z,8.38
2022-10-28T06:21:28.437Z,8.43
2022-10-28T06:23:59.827Z,8.47
2022-10-28T06:26:31.443Z,8.53
2022-10-28T06:29:03.049Z,8.57
2022-10-28T06:31:35.388Z,8.61
2022-10-28T06:34:07.991Z,8.66
2022-10-28T06:36:39.800Z,8.71
2022-10-28T06:39:11.337Z,8.76
2022-10-28T06:41:43.369Z,8.78
2022-10-28T06:44:14.884Z,8.81
2022-10-28T06:46:47.826Z,8.86
2022-10-28T06:49:19.234Z,8.90
2022-10-28T06:51:51.066Z,8.87
2022-10-28T06:54:23.914Z,8.93
2022-10-28T06:56:55.341Z,8.95
2022-10-28T06:59:26.742Z,9.03
2022-10-28T07:01:58.319Z,9.13
2022-10-28T07:04:30.150Z,9.22
2022-10-28T07:07:01.624Z,9.29
2022-10-28T07:09:33.980Z,9.39
2022-10-28T07:12:05.833Z,9.48
2022-10-28T07:14:38.529Z,9.59
2022-10-28T07:17:10.032Z,9.68
2022-10-28T07:19:41.459Z,9.85
2022-10-28T07:22:12.868Z,10.19
2022-10-28T07:24:44.350Z,10.74
2022-10-28T07:27:16.096Z,11.43
2022-10-28T07:29:47.616Z,12.16
2022-10-28T07:32:19.050Z,12.84
2022-10-28T07:34:50.607Z,13.55
2022-10-28T07:37:22.038Z,14.21
2022-10-28T07:39:53.513Z,14.80
2022-10-28T07:42:24.916Z,15.32
2022-10-28T07:44:56.276Z,15.80
2022-10-28T07:47:27.845Z,16.42
2022-10-28T07:49:59.251Z,17.04
2022-10-28T07:52:30.854Z,17.65
2022-10-28T07:55:02.433Z,18.20
2022-10-28T07:57:34.842Z,18.60
2022-10-28T08:00:09.130Z,19.10
2022-10-28T08:02:41.000Z,19.48
2022-10-28T08:05:13.006Z,19.69
2022-10-28T08:07:44.985Z,19.91
2022-10-28T08:10:16.471Z,20.22
2022-10-28T08:12:47.927Z,20.54
2022-10-28T08:15:22.771Z,20.88
2022-10-28T08:17:55.444Z,21.31
2022-10-28T08:20:27.790Z,21.66
2022-10-28T08:23:02.880Z,21.96
2022-10-28T08:25:38.360Z,21.99
2022-10-28T08:28:09.801Z,22.01
2022-10-28T08:30:56.657Z,22.29
2022-10-28T08:33:29.196Z,22.45
2022-10-28T08:36:00.630Z,22.35
2022-10-28T08:38:32.203Z,22.14
2022-10-28T08:41:14.520Z,21.98
2022-10-28T08:44:00.301Z,21.78
2022-10-28T08:46:49.785Z,21.57
2022-10-28T08:49:24.388Z,21.29
2022-10-28T08:52:00.954Z,21.18
2022-10-28T08:54:38.980Z,21.16
2022-10-28T08:57:18.290Z,21.02
2022-10-28T08:59:56.920Z,20.93
2022-10-28T09:02:32.087Z,20.96
2022-10-28T09:05:16.582Z,21.07
2022-10-28T09:07:48.295Z,21.32
2022-10-28T09:10:26.597Z,21.81
2022-10-28T09:13:05.601Z,22.24
2022-10-28T09:15:43.809Z,22.75
2022-10-28T09:18:22.188Z,23.08
2022-10-28T09:20:56.224Z,23.14
2022-10-28T09:23:33.251Z,23.15
2022-10-28T09:26:17.870Z,23.18
2022-10-28T09:28:59.367Z,22.88
2022-10-28T09:31:35.974Z,22.48
2022-10-28T09:34:18.090Z,22.10
2022-10-28T09:36:55.449Z,21.69
2022-10-28T09:39:32.057Z,21.38
2022-10-28T09:42:05.655Z,21.15
2022-10-28T09:44:45.247Z,20.93
2022-10-28T09:47:23.118Z,20.69
2022-10-28T09:49:58.126Z,20.50
2022-10-28T09:52:36.010Z,20.34
2022-10-28T09:55:20.254Z,20.24
2022-10-28T09:57:52.605Z,20.12
2022-10-28T10:00:25.711Z,20.02
2022-10-28T10:02:59.806Z,20.11
2022-10-28T10:05:34.214Z,20.54
2022-10-28T10:08:08.044Z,21.37
2022-10-28T10:10:44.794Z,22.01
2022-10-28T10:13:19.386Z,22.30
2022-10-28T10:15:53.686Z,22.22
2022-10-28T10:18:30.177Z,22.11
2022-10-28T10:21:02.721Z,21.98
2022-10-28T10:23:36.994Z,21.77
2022-10-28T10:26:12.893Z,21.84
2022-10-28T10:28:49.025Z,22.47
2022-10-28T10:31:22.316Z,23.21
2022-10-28T10:33:57.630Z,24.11
2022-10-28T10:36:32.046Z,24.67
2022-10-28T10:39:05.296Z,25.43
2022-10-28T10:41:39.492Z,25.68
2022-10-28T10:44:32.698Z,25.75
2022-10-28T10:47:24.760Z,26.16
2022-10-28T10:50:22.218Z,26.73
2022-10-28T10:52:58.542Z,27.23
2022-10-28T10:55:38.637Z,27.79
2022-10-28T10:58:23.099Z,28.31
2022-10-28T11:00:57.120Z,28.37
2022-10-28T11:03:36.769Z,28.08
2022-10-28T11:06:24.542Z,27.57
2022-10-28T11:09:01.403Z,27.20
2022-10-28T11:11:37.742Z,26.85
2022-10-28T11:14:25.680Z,26.56
2022-10-28T11:16:58.990Z,26.48
2022-10-28T11:19:34.631Z,26.26
2022-10-28T11:22:22.267Z,25.98
2022-10-28T11:25:15.790Z,25.74
2022-10-28T11:28:03.135Z,25.63
2022-10-28T11:30:49.156Z,25.33
2022-10-28T11:33:30.124Z,24.86
2022-10-28T11:36:16.438Z,24.61
2022-10-28T11:39:00.908Z,24.42
2022-10-28T11:41:46.237Z,24.28
2022-10-28T11:44:30.644Z,24.20
2022-10-28T11:47:16.736Z,24.11
2022-10-28T11:50:21.723Z,23.95
2022-10-28T11:53:13.801Z,23.68
2022-10-28T11:55:51.941Z,23.47
2022-10-28T11:58:32.563Z,23.31
2022-10-28T12:01:13.364Z,23.09
2022-10-28T12:04:02.270Z,22.76
2022-10-28T12:06:50.788Z,22.39
2022-10-28T12:09:34.388Z,22.18
2022-10-28T12:12:16.999Z,21.96
2022-10-28T12:15:01.416Z,21.83
2022-10-28T12:17:41.523Z,21.74
2022-10-28T12:20:20.750Z,21.66
2022-10-28T12:22:58.082Z,21.56
2022-10-28T12:25:33.719Z,21.47
2022-10-28T12:28:21.297Z,21.38
2022-10-28T12:30:54.943Z,21.26
2022-10-28T12:33:29.365Z,21.09
2022-10-28T12:36:20.217Z,20.99
2022-10-28T12:38:57.387Z,20.82
2022-10-28T12:41:45.009Z,20.68
2022-10-28T12:44:20.721Z,20.58
2022-10-28T12:47:04.547Z,20.43
2022-10-28T12:49:48.678Z,20.35
2022-10-28T12:52:25.419Z,20.43
2022-10-28T12:55:03.438Z,20.47
2022-10-28T12:57:38.064Z,20.49
2022-10-28T13:00:20.676Z,20.49
2022-10-28T13:02:57.591Z,20.44
2022-10-28T13:05:35.613Z,20.36
2022-10-28T13:08:46.089Z,20.26
2022-10-28T13:12:06.941Z,20.19
2022-10-28T13:14:59.703Z,20.14
2022-10-28T13:17:56.172Z,20.08
2022-10-28T13:20:40.761Z,20.00
2022-10-28T13:23:26.956Z,19.92
2022-10-28T13:26:06.484Z,19.82
2022-10-28T13:28:46.930Z,19.69
2022-10-28T13:31:20.764Z,19.59
2022-10-28T13:33:54.190Z,19.51
2022-10-28T13:36:29.603Z,19.44
2022-10-28T13:39:03.924Z,19.40
2022-10-28T13:41:46.225Z,19.33
2022-10-28T13:44:31.031Z,19.26
2022-10-28T13:47:30.232Z,19.17
2022-10-28T13:50:37.687Z,19.07
2022-10-28T13:53:43.858Z,19.00
2022-10-28T13:56:22.967Z,18.94
2022-10-28T13:58:58.852Z,18.85
2022-10-28T14:02:07.385Z,18.79
2022-10-28T14:04:57.974Z,18.69
2022-10-28T14:07:32.747Z,18.64
2022-10-28T14:10:22.663Z,18.62
2022-10-28T14:12:58.391Z,18.58
2022-10-28T14:15:34.863Z,18.55
2022-10-28T14:21:11.241Z,18.43
2022-10-28T14:24:11.107Z,18.37
2022-10-28T14:27:23.140Z,18.31
2022-10-28T14:30:16.307Z,18.23
2022-10-28T14:33:00.660Z,18.15
2022-10-28T14:35:43.420Z,18.08
2022-10-28T14:38:48.829Z,18.00
2022-10-28T14:41:51.466Z,17.91
2022-10-28T14:44:42.873Z,17.85
2022-10-28T14:47:33.765Z,17.79
2022-10-28T14:50:07.933Z,17.74
2022-10-28T14:52:40.484Z,17.70
2022-10-28T14:55:25.310Z,17.64
2022-10-28T14:58:12.412Z,17.59
2022-10-28T15:03:34.039Z,17.46
2022-10-28T15:06:26.395Z,17.42
2022-10-28T15:09:04.337Z,17.36
2022-10-28T15:11:36.422Z,17.27
2022-10-28T15:14:27.476Z,17.21
2022-10-28T15:17:00.867Z,17.15
2022-10-28T15:19:37.197Z,17.08
2022-10-28T15:22:16.207Z,17.01
2022-10-28T15:25:02.100Z,16.95
2022-10-28T15:27:35.464Z,16.89
2022-10-28T15:30:15.642Z,16.83
2022-10-28T15:32:47.793Z,16.77
2022-10-28T15:35:40.636Z,16.72
2022-10-28T15:38:40.469Z,16.66
2022-10-28T15:41:43.609Z,16.60
2022-10-28T15:44:35.475Z,16.52
2022-10-28T15:47:19.697Z,16.44
2022-10-28T15:50:03.213Z,16.36
2022-10-28T15:52:40.451Z,16.28
2022-10-28T15:56:02.400Z,16.21
2022-10-28T15:58:38.107Z,16.14
2022-10-28T16:01:30.133Z,16.09
2022-10-28T16:04:02.050Z,16.04
2022-10-28T16:06:36.411Z,15.99
2022-10-28T16:09:17.292Z,15.94
2022-10-28T16:11:52.095Z,15.89
2022-10-28T16:14:33.617Z,15.84
2022-10-28T16:17:13.897Z,15.79
2022-10-28T16:19:50.777Z,15.73
2022-10-28T16:22:23.327Z,15.67
2022-10-28T16:24:56.378Z,15.62
2022-10-28T16:27:30.082Z,15.55
2022-10-28T16:30:01.712Z,15.49
2022-10-28T16:32:38.393Z,15.43
2022-10-28T16:35:17.202Z,15.37
2022-10-28T16:37:54.830Z,15.30
2022-10-28T16:43:21.168Z,15.15
2022-10-28T16:45:54.199Z,15.09
2022-10-28T16:48:28.420Z,15.04
2022-10-28T16:51:02.843Z,14.99
2022-10-28T16:53:35.255Z,14.93
2022-10-28T16:56:13.575Z,14.88
2022-10-28T16:58:47.420Z,14.83
2022-10-28T17:01:22.874Z,14.77
2022-10-28T17:03:54.500Z,14.71
2022-10-28T17:06:26.660Z,14.67
2022-10-28T17:09:02.896Z,14.64
2022-10-28T17:11:35.706Z,14.60
2022-10-28T17:14:07.424Z,14.55
2022-10-28T17:16:42.426Z,14.49
2022-10-28T17:19:15.652Z,14.46
2022-10-28T17:21:47.332Z,14.42
2022-10-28T17:24:20.389Z,14.39
2022-10-28T17:26:53.225Z,14.35
2022-10-28T17:29:24.843Z,14.32
2022-10-28T17:31:56.588Z,14.28
2022-10-28T17:34:28.611Z,14.23
2022-10-28T17:37:00.341Z,14.18
2022-10-28T17:39:32.003Z,14.11
2022-10-28T17:42:04.069Z,14.07
2022-10-28T17:44:36.571Z,14.02
2022-10-28T17:47:08.229Z,13.99
2022-10-28T17:49:39.763Z,13.93
2022-10-28T17:52:11.360Z,13.87
2022-10-28T17:54:42.959Z,13.83
2022-10-28T17:57:14.565Z,13.80
2022-10-28T17:59:46.485Z,13.75
2022-10-28T18:02:18.221Z,13.67
2022-10-28T18:04:50.105Z,13.62
2022-10-28T18:07:21.764Z,13.55
2022-10-28T18:09:53.476Z,13.51
2022-10-28T18:12:25.203Z,13.47
2022-10-28T18:14:56.849Z,13.42
2022-10-28T18:17:28.553Z,13.38
2022-10-28T18:20:02.343Z,13.34
2022-10-28T18:22:32.363Z,13.28
2022-10-28T18:25:04.162Z,13.18
2022-10-28T18:27:35.789Z,13.15
2022-10-28T18:30:09.122Z,13.07
2022-10-28T18:32:40.682Z,13.00
2022-10-28T18:35:12.251Z,12.93
2022-10-28T18:37:43.909Z,12.90
2022-10-28T18:40:16.347Z,12.84
2022-10-28T18:42:47.859Z,12.82
2022-10-28T18:45:19.482Z,12.77
2022-10-28T18:47:51.121Z,12.71
2022-10-28T18:50:22.836Z,12.66
2022-10-28T18:52:54.618Z,12.63
2022-10-28T18:55:26.479Z,12.62
2022-10-28T18:57:58.149Z,12.58
2022-10-28T19:00:29.986Z,12.51
2022-10-28T19:03:01.604Z,12.45
2022-10-28T19:05:34.247Z,12.39
2022-10-28T19:08:05.981Z,12.35
2022-10-28T19:10:37.723Z,12.31
2022-10-28T19:13:09.478Z,12.28
2022-10-28T19:15:48.774Z,12.24
2022-10-28T19:18:20.323Z,12.20
2022-10-28T19:20:52.193Z,12.16
2022-10-28T19:23:23.755Z,12.13
2022-10-28T19:26:00.032Z,12.11
2022-10-28T19:28:32.018Z,12.09
2022-10-28T19:31:07.646Z,12.07
2022-10-28T19:33:39.926Z,12.06
2022-10-28T19:36:17.519Z,12.03
2022-10-28T19:38:50.782Z,12.00
2022-10-28T19:41:24.469Z,11.95
2022-10-28T19:44:00.589Z,11.92
2022-10-28T19:46:34.315Z,11.92
2022-10-28T19:49:07.835Z,11.90
2022-10-28T19:51:42.132Z,11.91
2022-10-28T19:54:16.062Z,11.89
2022-10-28T19:56:47.753Z,11.87
2022-10-28T19:59:19.448Z,11.85
2022-10-28T20:01:51.212Z,11.84
2022-10-28T20:04:23.029Z,11.81
2022-10-28T20:06:54.645Z,11.75
2022-10-28T20:09:28.945Z,11.72
2022-10-28T20:12:01.940Z,11.70
2022-10-28T20:14:33.745Z,11.66
2022-10-28T20:17:06.823Z,11.63
2022-10-28T20:19:40.269Z,11.60
2022-10-28T20:22:13.716Z,11.54
2022-10-28T20:24:47.774Z,11.52
2022-10-28T20:27:20.345Z,11.49
2022-10-28T20:29:52.339Z,11.45
2022-10-28T20:32:24.904Z,11.41
2022-10-28T20:34:57.101Z,11.39
2022-10-28T20:37:28.850Z,11.36
2022-10-28T20:40:06.384Z,11.34
2022-10-28T20:42:39.340Z,11.33
2022-10-28T20:45:12.292Z,11.30
2022-10-28T20:47:44.113Z,11.28
2022-10-28T20:50:15.922Z,11.24
2022-10-28T20:52:47.526Z,11.17
2022-10-28T20:55:20.335Z,11.13
2022-10-28T20:57:51.899Z,11.10
2022-10-28T21:00:23.881Z,11.09
2022-10-28T21:02:57.803Z,11.07
2022-10-28T21:05:31.836Z,11.05
2022-10-28T21:08:03.453Z,11.03
2022-10-28T21:10:36.835Z,11.02
2022-10-28T21:13:09.491Z,10.99
2022-10-28T21:15:42.142Z,10.94
2022-10-28T21:18:14.403Z,10.91
2022-10-28T21:20:46.078Z,10.87
2022-10-28T21:23:17.664Z,10.84
2022-10-28T21:25:55.758Z,10.81
2022-10-28T21:28:30.403Z,10.80
2022-10-28T21:31:06.614Z,10.78
2022-10-28T21:33:39.696Z,10.77
2022-10-28T21:36:14.443Z,10.76
2022-10-28T21:38:46.092Z,10.74
2022-10-28T21:41:19.391Z,10.75
2022-10-28T21:43:52.806Z,10.73
2022-10-28T21:46:25.463Z,10.71
2022-10-28T21:48:57.094Z,10.68
2022-10-28T21:51:28.705Z,10.67
2022-10-28T21:54:00.275Z,10.65
2022-10-28T21:56:31.909Z,10.62
2022-10-28T21:59:03.506Z,10.62
2022-10-28T22:01:35.942Z,10.61
2022-10-28T22:04:09.218Z,10.61
2022-10-28T22:06:40.795Z,10.60
2022-10-28T22:09:12.426Z,10.59
2022-10-28T22:11:47.851Z,10.58
2022-10-28T22:14:19.350Z,10.55
2022-10-28T22:16:50.941Z,10.55
2022-10-28T22:19:22.478Z,10.54
2022-10-28T22:21:54.030Z,10.54
2022-10-28T22:24:25.573Z,10.52
2022-10-28T22:26:57.106Z,10.51
2022-10-28T22:29:28.728Z,10.47
2022-10-28T22:32:00.340Z,10.45
2022-10-28T22:40:48.104Z,10.40
2022-10-28T22:45:58.185Z,10.31
2022-10-28T22:51:05.020Z,10.27
2022-10-28T22:56:15.972Z,10.21
2022-10-28T23:01:24.040Z,10.19
2022-10-28T23:06:40.375Z,10.15
2022-10-28T23:11:46.945Z,10.29
2022-10-28T23:16:53.496Z,10.46
2022-10-28T23:22:00.134Z,10.36
2022-10-28T23:27:06.975Z,10.26
2022-10-28T23:32:13.825Z,10.15
2022-10-28T23:37:20.520Z,10.05
2022-10-28T23:42:27.211Z,9.99
2022-10-28T23:47:33.897Z,9.93
2022-10-28T23:52:40.690Z,9.89
2022-10-28T23:57:47.361Z,9.87
